createdAt,value
2023-03-23T15:59:10.828Z,96572.47
2023-03-23T16:01:40.070Z,96582.47
2023-03-23T16:04:10.846Z,96578.16
2023-03-23T16:06:38.254Z,96579.34
2023-03-23T16:09:07.012Z,96577.63
2023-03-23T16:11:34.423Z,96581.25
2023-03-23T16:14:01.760Z,96581.56
2023-03-23T16:16:32.538Z,96574.31
2023-03-23T16:18:59.078Z,96585.50
2023-03-23T16:21:26.107Z,96591.19
2023-03-23T16:23:52.722Z,96581.56
2023-03-23T16:26:19.295Z,96593.97
2023-03-23T16:28:46.108Z,96581.47
2023-03-23T16:31:12.677Z,96590.88
2023-03-23T16:33:39.375Z,96590.16
2023-03-23T16:36:06.288Z,96592.59
2023-03-23T16:38:32.802Z,96584.69
2023-03-23T16:41:16.201Z,96584.09
2023-03-23T16:43:42.725Z,96587.31
2023-03-23T16:46:12.341Z,96590.03
2023-03-23T16:48:38.924Z,96592.47
2023-03-23T16:51:05.567Z,96583.16
2023-03-23T16:53:32.611Z,96590.00
2023-03-23T16:55:59.123Z,96582.06
2023-03-23T16:58:25.902Z,96576.09
2023-03-23T17:00:53.489Z,96574.50
2023-03-23T17:03:21.562Z,96569.13
2023-03-23T17:05:50.340Z,96559.41
2023-03-23T17:08:18.000Z,96561.84
2023-03-23T17:10:45.702Z,96571.94
2023-03-23T17:13:12.636Z,96575.75
2023-03-23T17:15:43.644Z,96566.56
2023-03-23T17:18:11.748Z,96559.06
2023-03-23T17:20:38.586Z,96566.25
2023-03-23T17:23:05.893Z,96563.81
2023-03-23T17:25:32.476Z,96562.69
2023-03-23T17:28:05.106Z,96568.50
2023-03-23T17:30:33.011Z,96562.25
2023-03-23T17:32:59.600Z,96562.84
2023-03-23T17:35:26.244Z,96560.28
2023-03-23T17:37:52.706Z,96562.06
2023-03-23T17:40:19.234Z,96555.91
2023-03-23T17:42:45.724Z,96553.75
2023-03-23T17:45:12.518Z,96561.22
2023-03-23T17:47:39.210Z,96551.69
2023-03-23T17:50:11.238Z,96558.63
2023-03-23T17:52:39.255Z,96566.34
2023-03-23T17:55:06.287Z,96560.34
2023-03-23T17:57:32.879Z,96571.13
2023-03-23T17:59:59.354Z,96563.13
2023-03-23T18:02:26.062Z,96567.47
2023-03-23T18:04:52.683Z,96572.41
2023-03-23T18:07:23.424Z,96575.19
2023-03-23T18:09:50.806Z,96573.38
2023-03-23T18:12:18.230Z,96571.88
2023-03-23T18:14:44.805Z,96562.56
2023-03-23T18:17:11.303Z,96577.03
2023-03-23T18:19:38.004Z,96561.34
2023-03-23T18:22:04.509Z,96556.72
2023-03-23T18:24:31.050Z,96555.34
2023-03-23T18:26:57.592Z,96566.13
2023-03-23T18:29:24.091Z,96550.53
2023-03-23T18:31:50.650Z,96551.03
2023-03-23T18:34:17.327Z,96553.84
2023-03-23T18:36:43.829Z,96556.28
2023-03-23T18:39:12.027Z,96556.00
2023-03-23T18:41:38.775Z,96560.59
2023-03-23T18:44:06.104Z,96563.72
2023-03-23T18:46:32.718Z,96568.38
2023-03-23T18:48:59.192Z,96563.78
2023-03-23T18:51:26.183Z,96574.47
2023-03-23T18:53:52.819Z,96570.63
2023-03-23T18:56:19.396Z,96567.91
2023-03-23T18:58:46.382Z,96570.63
2023-03-23T19:01:16.620Z,96578.78
2023-03-23T19:03:44.642Z,96582.31
2023-03-23T19:06:23.534Z,96590.91
2023-03-23T19:08:52.167Z,96584.72
2023-03-23T19:11:19.435Z,96581.50
2023-03-23T19:13:58.472Z,96581.56
2023-03-23T19:16:29.175Z,96582.66
2023-03-23T19:18:55.798Z,96574.28
2023-03-23T19:21:25.699Z,96580.25
2023-03-23T19:23:54.990Z,96583.25
2023-03-23T19:26:29.947Z,96586.47
2023-03-23T19:31:26.151Z,96578.69
2023-03-23T19:33:53.132Z,96584.69
2023-03-23T19:36:21.319Z,96584.47
2023-03-23T19:38:49.084Z,96582.03
2023-03-23T19:41:18.295Z,96588.31
2023-03-23T19:43:45.733Z,96575.28
2023-03-23T19:46:12.641Z,96572.31
2023-03-23T19:48:39.968Z,96576.44
2023-03-23T19:51:07.443Z,96567.81
2023-03-23T19:53:34.633Z,96571.56
2023-03-23T19:56:03.541Z,96576.53
2023-03-23T19:58:31.471Z,96572.72
2023-03-23T20:01:00.704Z,96582.03
2023-03-23T20:03:27.208Z,96569.59
2023-03-23T20:06:01.286Z,96565.53
2023-03-23T20:08:28.503Z,96567.28
2023-03-23T20:11:05.553Z,96575.25
2023-03-23T20:13:32.834Z,96570.63
2023-03-23T20:16:00.805Z,96575.19
2023-03-23T20:18:29.804Z,96572.00
2023-03-23T20:21:11.167Z,96565.72
2023-03-23T20:23:38.968Z,96561.47
2023-03-23T20:26:11.693Z,96559.88
2023-03-23T20:28:39.133Z,96558.81
2023-03-23T20:31:18.770Z,96557.78
2023-03-23T20:34:00.498Z,96554.34
2023-03-23T20:36:40.286Z,96557.16
2023-03-23T20:39:10.484Z,96558.25
2023-03-23T20:41:38.762Z,96550.69
2023-03-23T20:44:06.997Z,96552.34
2023-03-23T20:46:34.636Z,96550.69
2023-03-23T20:49:01.939Z,96555.09
2023-03-23T20:51:28.482Z,96548.88
2023-03-23T20:53:55.604Z,96551.81
2023-03-23T20:56:22.442Z,96553.97
2023-03-23T20:58:49.004Z,96557.72
2023-03-23T21:01:15.579Z,96559.34
2023-03-23T21:03:43.413Z,96559.34
2023-03-23T21:06:10.720Z,96554.56
2023-03-23T21:08:39.709Z,96550.25
2023-03-23T21:11:09.117Z,96552.13
2023-03-23T21:13:36.698Z,96552.78
2023-03-23T21:16:04.289Z,96547.59
2023-03-23T21:18:31.725Z,96539.81
2023-03-23T21:21:00.222Z,96531.44
2023-03-23T21:23:29.849Z,96521.66
2023-03-23T21:26:05.959Z,96525.19
2023-03-23T21:28:32.448Z,96520.38
2023-03-23T21:31:04.413Z,96519.16
2023-03-23T21:33:31.038Z,96507.91
2023-03-23T21:35:58.095Z,96505.28
2023-03-23T21:38:27.950Z,96505.53
2023-03-23T21:40:56.924Z,96492.25
2023-03-23T21:43:27.121Z,96497.41
2023-03-23T21:45:57.200Z,96497.09
2023-03-23T21:48:25.106Z,96495.47
2023-03-23T21:50:52.183Z,96499.34
2023-03-23T21:53:19.286Z,96499.81
2023-03-23T21:55:51.204Z,96491.66
2023-03-23T21:58:23.649Z,96482.19
2023-03-23T22:00:54.065Z,96472.19
2023-03-23T22:03:25.185Z,96469.81
2023-03-23T22:05:54.606Z,96460.31
2023-03-23T22:08:22.375Z,96449.78
2023-03-23T22:11:01.208Z,96449.78
2023-03-23T22:13:30.752Z,96441.19
2023-03-23T22:15:59.421Z,96431.34
2023-03-23T22:18:26.436Z,96431.91
2023-03-23T22:20:53.340Z,96430.38
2023-03-23T22:23:20.199Z,96427.44
2023-03-23T22:25:47.105Z,96419.00
2023-03-23T22:28:13.671Z,96413.28
2023-03-23T22:30:40.220Z,96412.16
2023-03-23T22:33:07.029Z,96414.41
2023-03-23T22:35:33.855Z,96409.00
2023-03-23T22:38:03.105Z,96410.69
2023-03-23T22:40:31.039Z,96421.66
2023-03-23T22:42:58.156Z,96418.66
2023-03-23T22:45:26.116Z,96422.66
2023-03-23T22:47:52.946Z,96419.91
2023-03-23T22:50:21.511Z,96418.06
2023-03-23T22:52:48.484Z,96418.38
2023-03-23T22:55:15.730Z,96422.38
2023-03-23T22:57:42.302Z,96413.59
2023-03-23T23:00:14.411Z,96410.31
2023-03-23T23:02:42.557Z,96410.84
2023-03-23T23:05:10.867Z,96412.91
2023-03-23T23:07:38.287Z,96407.78
2023-03-23T23:10:05.886Z,96394.84
2023-03-23T23:12:35.115Z,96406.63
2023-03-23T23:15:05.761Z,96412.44
2023-03-23T23:17:34.514Z,96404.06
2023-03-23T23:20:01.424Z,96411.66
2023-03-23T23:22:28.015Z,96416.03
2023-03-23T23:24:54.593Z,96430.09
2023-03-23T23:27:21.350Z,96427.44
2023-03-23T23:29:47.975Z,96446.09
2023-03-23T23:32:14.826Z,96424.97
2023-03-23T23:34:41.452Z,96434.97
2023-03-23T23:37:09.138Z,96433.00
2023-03-23T23:39:38.285Z,96413.34
2023-03-23T23:42:05.748Z,96422.84
2023-03-23T23:44:32.970Z,96408.97
2023-03-23T23:46:59.532Z,96399.22
2023-03-23T23:49:28.664Z,96384.06
2023-03-23T23:51:56.489Z,96374.94
2023-03-23T23:54:29.516Z,96373.91
2023-03-23T23:57:01.133Z,96372.81
2023-03-23T23:59:28.917Z,96372.22
